createdAt,value
2023-02-05T00:00:20.539Z,94.50
2023-02-05T00:02:49.513Z,94.50
2023-02-05T00:05:18.391Z,94.50
2023-02-05T00:07:47.593Z,94.50
2023-02-05T00:10:16.821Z,94.60
2023-02-05T00:12:46.069Z,94.60
2023-02-05T00:15:14.972Z,94.60
2023-02-05T00:17:43.821Z,94.60
2023-02-05T00:20:13.203Z,94.90
2023-02-05T00:22:42.262Z,94.80
2023-02-05T00:25:11.250Z,94.80
2023-02-05T00:27:40.377Z,95.30
2023-02-05T00:30:10.551Z,95.30
2023-02-05T00:32:39.512Z,95.30
2023-02-05T00:35:08.617Z,95.10
2023-02-05T00:37:37.552Z,95.00
2023-02-05T00:40:06.797Z,94.90
2023-02-05T00:42:35.935Z,95.00
2023-02-05T00:45:05.021Z,95.00
2023-02-05T00:47:33.902Z,94.80
2023-02-05T00:50:02.830Z,94.90
2023-02-05T00:52:31.791Z,94.80
2023-02-05T00:55:00.700Z,94.80
2023-02-05T00:57:29.591Z,94.70
2023-02-05T00:59:58.541Z,94.70
2023-02-05T01:02:27.545Z,94.60
2023-02-05T01:04:57.265Z,94.50
2023-02-05T01:07:26.156Z,94.70
2023-02-05T01:09:55.131Z,94.70
2023-02-05T01:12:24.137Z,94.70
2023-02-05T01:14:54.810Z,94.60
2023-02-05T01:17:24.483Z,94.40
2023-02-05T01:19:53.660Z,94.40
2023-02-05T01:22:22.761Z,94.30
2023-02-05T01:24:51.662Z,94.40
2023-02-05T01:27:20.638Z,94.20
2023-02-05T01:29:49.616Z,94.30
2023-02-05T01:32:19.030Z,93.90
2023-02-05T01:34:48.581Z,93.80
2023-02-05T01:37:17.496Z,93.60
2023-02-05T01:39:46.512Z,93.30
2023-02-05T01:42:24.061Z,93.10
2023-02-05T01:45:23.835Z,92.80
2023-02-05T01:48:04.256Z,92.60
2023-02-05T01:50:44.389Z,92.30
2023-02-05T01:53:27.514Z,92.10
2023-02-05T01:56:06.317Z,91.80
2023-02-05T01:58:42.626Z,91.50
2023-02-05T02:01:11.571Z,91.20
2023-02-05T02:03:41.973Z,91.00
2023-02-05T02:06:11.008Z,90.90
2023-02-05T02:08:39.970Z,90.80
2023-02-05T02:11:12.574Z,90.70
2023-02-05T02:13:42.961Z,90.60
2023-02-05T02:16:12.788Z,90.40
2023-02-05T02:18:42.066Z,90.30
2023-02-05T02:21:47.627Z,90.20
2023-02-05T02:24:35.261Z,90.10
2023-02-05T02:27:16.217Z,90.10
2023-02-05T02:29:56.690Z,89.60
2023-02-05T02:33:07.627Z,89.40
2023-02-05T02:35:59.127Z,89.10
2023-02-05T02:39:05.231Z,89.10
2023-02-05T02:41:42.223Z,88.70
2023-02-05T02:44:21.302Z,88.70
2023-02-05T02:46:56.271Z,88.60
2023-02-05T02:49:38.310Z,88.60
2023-02-05T02:52:10.646Z,88.60
2023-02-05T02:54:43.935Z,88.60
2023-02-05T02:57:14.389Z,88.60
2023-02-05T02:59:45.781Z,88.60
2023-02-05T03:02:19.388Z,88.50
2023-02-05T03:04:55.960Z,88.30
2023-02-05T03:07:30.958Z,88.30
2023-02-05T03:10:04.709Z,88.20
2023-02-05T03:12:34.170Z,89.20
2023-02-05T03:15:03.509Z,89.10
2023-02-05T03:17:32.639Z,89.60
2023-02-05T03:20:15.396Z,89.50
2023-02-05T03:22:44.436Z,89.90
2023-02-05T03:25:13.622Z,90.20
2023-02-05T03:27:42.832Z,90.80
2023-02-05T03:30:12.365Z,91.00
2023-02-05T03:32:56.854Z,90.70
2023-02-05T03:35:40.770Z,91.30
2023-02-05T03:38:39.231Z,91.40
2023-02-05T03:41:59.162Z,91.80
2023-02-05T03:44:40.303Z,91.60
2023-02-05T03:47:36.883Z,92.20
2023-02-05T03:50:32.262Z,91.20
2023-02-05T03:53:27.527Z,90.90
2023-02-05T03:56:10.536Z,91.70
2023-02-05T03:58:44.291Z,91.60
2023-02-05T04:01:14.086Z,91.70
2023-02-05T04:03:43.168Z,91.10
2023-02-05T04:06:12.207Z,90.60
2023-02-05T04:08:41.500Z,91.40
2023-02-05T04:11:10.692Z,90.90
2023-02-05T04:13:39.657Z,91.40
2023-02-05T04:16:08.626Z,91.50
2023-02-05T04:18:37.509Z,91.20
2023-02-05T04:21:06.720Z,91.50
2023-02-05T04:23:35.644Z,91.50
2023-02-05T04:26:04.631Z,91.70
2023-02-05T04:28:34.072Z,91.40
2023-02-05T04:31:03.073Z,91.90
2023-02-05T04:33:31.980Z,92.00
2023-02-05T04:36:01.761Z,91.60
2023-02-05T04:38:30.734Z,91.70
2023-02-05T04:40:59.634Z,91.50
2023-02-05T04:43:29.466Z,91.90
2023-02-05T04:45:58.435Z,91.90
2023-02-05T04:48:27.423Z,92.10
2023-02-05T04:50:56.478Z,91.70
2023-02-05T04:53:25.421Z,91.90
2023-02-05T04:55:56.048Z,91.60
2023-02-05T04:58:24.984Z,91.60
2023-02-05T05:00:53.915Z,91.50
2023-02-05T05:03:22.823Z,91.70
2023-02-05T05:05:51.703Z,91.70
2023-02-05T05:08:20.846Z,91.30
2023-02-05T05:10:49.759Z,91.50
2023-02-05T05:13:18.790Z,91.90
2023-02-05T05:15:47.709Z,92.20
2023-02-05T05:18:16.728Z,92.00
2023-02-05T05:20:46.091Z,92.30
2023-02-05T05:23:15.349Z,92.50
2023-02-05T05:25:45.286Z,92.40
2023-02-05T05:28:15.067Z,92.20
2023-02-05T05:30:46.468Z,92.40
2023-02-05T05:33:15.585Z,93.00
2023-02-05T05:35:44.582Z,93.10
2023-02-05T05:38:13.810Z,92.80
2023-02-05T05:41:01.122Z,92.70
2023-02-05T05:43:48.423Z,92.70
2023-02-05T05:46:23.931Z,92.30
2023-02-05T05:48:58.055Z,92.50
2023-02-05T05:51:27.971Z,92.00
2023-02-05T05:53:58.180Z,93.20
2023-02-05T05:56:27.268Z,92.70
2023-02-05T05:58:56.237Z,92.30
2023-02-05T06:01:25.259Z,92.40
2023-02-05T06:03:54.323Z,92.20
2023-02-05T06:06:23.300Z,92.10
2023-02-05T06:08:52.451Z,91.80
2023-02-05T06:11:21.471Z,91.30
2023-02-05T06:13:50.624Z,91.20
2023-02-05T06:16:19.978Z,91.20
2023-02-05T06:18:49.402Z,91.10
2023-02-05T06:21:18.396Z,90.90
2023-02-05T06:23:47.392Z,90.80
2023-02-05T06:26:16.340Z,90.80
2023-02-05T06:28:45.294Z,90.70
2023-02-05T06:31:14.424Z,91.00
2023-02-05T06:33:43.379Z,91.20
2023-02-05T06:36:12.378Z,91.20
2023-02-05T06:38:41.256Z,91.10
2023-02-05T06:41:10.229Z,91.10
2023-02-05T06:43:39.282Z,91.10
2023-02-05T06:46:08.267Z,91.10
2023-02-05T06:48:37.153Z,91.00
2023-02-05T06:51:06.646Z,90.80
2023-02-05T06:53:36.828Z,90.60
2023-02-05T06:56:06.135Z,90.70
2023-02-05T06:58:34.984Z,90.70
2023-02-05T07:01:04.889Z,90.90
2023-02-05T07:03:33.881Z,90.60
2023-02-05T07:06:07.553Z,90.50
2023-02-05T07:08:37.051Z,90.50
2023-02-05T07:11:06.578Z,90.50
2023-02-05T07:13:35.494Z,90.40
2023-02-05T07:16:07.875Z,90.30
2023-02-05T07:18:37.101Z,90.30
2023-02-05T07:21:11.384Z,90.20
2023-02-05T07:23:40.422Z,90.20
2023-02-05T07:26:12.165Z,90.10
2023-02-05T07:28:41.511Z,90.20
2023-02-05T07:31:20.848Z,90.50
2023-02-05T07:33:52.179Z,90.00
2023-02-05T07:36:21.572Z,89.80
2023-02-05T07:38:52.278Z,89.70
2023-02-05T07:41:21.425Z,89.70
2023-02-05T07:43:53.938Z,89.80
2023-02-05T07:46:24.502Z,89.80
2023-02-05T07:48:53.490Z,89.70
2023-02-05T07:51:26.663Z,89.60
2023-02-05T07:53:55.832Z,89.10
2023-02-05T07:56:26.854Z,88.90
2023-02-05T07:58:55.914Z,88.80
2023-02-05T08:01:24.921Z,88.80
2023-02-05T08:03:54.341Z,88.60
2023-02-05T08:06:23.472Z,88.40
2023-02-05T08:08:52.576Z,88.20
2023-02-05T08:11:21.920Z,88.50
2023-02-05T08:13:50.966Z,88.30
2023-02-05T08:16:20.122Z,88.20
2023-02-05T08:18:52.935Z,88.00
2023-02-05T08:21:23.020Z,88.00
2023-02-05T08:23:52.315Z,87.90
2023-02-05T08:26:21.465Z,87.80
2023-02-05T08:28:50.625Z,87.70
2023-02-05T08:31:21.830Z,87.70
2023-02-05T08:33:51.969Z,87.80
2023-02-05T08:36:21.149Z,87.70
2023-02-05T08:38:50.772Z,87.60
2023-02-05T08:41:19.809Z,87.50
2023-02-05T08:43:50.849Z,87.50
2023-02-05T08:46:33.832Z,87.40
2023-02-05T08:49:12.774Z,87.70
2023-02-05T08:51:42.348Z,87.60
2023-02-05T08:54:14.480Z,87.50
2023-02-05T08:56:47.711Z,88.30
2023-02-05T08:59:16.810Z,87.60
2023-02-05T09:01:46.276Z,87.70
2023-02-05T09:04:19.593Z,87.80
2023-02-05T09:06:48.907Z,88.00
2023-02-05T09:09:18.235Z,88.20
2023-02-05T09:11:50.330Z,88.10
2023-02-05T09:14:19.419Z,88.00
2023-02-05T09:16:48.396Z,88.20
2023-02-05T09:19:17.547Z,88.30
2023-02-05T09:21:46.632Z,88.20
2023-02-05T09:24:15.576Z,88.10
2023-02-05T09:26:44.492Z,88.00
2023-02-05T09:29:13.381Z,87.90
2023-02-05T09:31:43.276Z,87.80
2023-02-05T09:34:12.308Z,87.80
2023-02-05T09:36:42.151Z,87.70
2023-02-05T09:39:24.212Z,87.60
2023-02-05T09:42:14.571Z,87.50
2023-02-05T09:44:52.612Z,87.40
2023-02-05T09:47:57.379Z,87.30
2023-02-05T09:50:30.535Z,87.40
2023-02-05T09:53:06.932Z,87.60
2023-02-05T09:55:42.134Z,87.50
2023-02-05T09:58:32.136Z,87.50
2023-02-05T10:01:08.521Z,87.50
2023-02-05T10:03:48.222Z,87.60
2023-02-05T10:06:44.335Z,87.50
2023-02-05T10:09:31.730Z,87.80
2023-02-05T10:12:39.161Z,88.00
2023-02-05T10:15:23.611Z,88.20
2023-02-05T10:18:16.622Z,88.00
2023-02-05T10:21:08.121Z,88.00
2023-02-05T10:24:14.084Z,88.20
2023-02-05T10:26:53.453Z,88.60
2023-02-05T10:29:46.573Z,88.50
2023-02-05T10:32:53.824Z,88.50
2023-02-05T10:35:45.523Z,89.00
2023-02-05T10:38:25.997Z,89.50
2023-02-05T10:41:05.138Z,90.00
2023-02-05T10:44:01.503Z,89.00
2023-02-05T10:46:35.114Z,89.30
2023-02-05T10:49:14.899Z,89.40
2023-02-05T10:51:46.312Z,89.50
2023-02-05T10:54:17.987Z,89.50
2023-02-05T10:56:47.578Z,89.80
2023-02-05T10:59:37.779Z,89.50
2023-02-05T11:02:09.868Z,89.90
2023-02-05T11:04:54.644Z,89.90
2023-02-05T11:07:47.358Z,89.60
2023-02-05T11:10:27.302Z,89.90
2023-02-05T11:12:57.862Z,89.70
2023-02-05T11:15:34.750Z,89.70
2023-02-05T11:18:08.746Z,89.70
2023-02-05T11:20:39.213Z,90.20
2023-02-05T11:23:15.700Z,91.00
2023-02-05T11:25:55.293Z,90.00
2023-02-05T11:28:25.960Z,90.10
2023-02-05T11:30:55.742Z,90.00
2023-02-05T11:33:33.935Z,90.10
2023-02-05T11:36:16.061Z,90.10
2023-02-05T11:38:51.569Z,90.20
2023-02-05T11:41:52.962Z,90.10
2023-02-05T11:44:30.093Z,90.30
2023-02-05T11:47:02.416Z,90.20
2023-02-05T11:49:40.453Z,90.20
2023-02-05T11:52:15.373Z,90.30
2023-02-05T11:54:50.190Z,90.40
2023-02-05T11:57:21.915Z,90.30
2023-02-05T11:59:59.427Z,90.30
2023-02-05T12:02:31.283Z,90.30
2023-02-05T12:05:07.591Z,90.40
2023-02-05T12:08:07.637Z,90.40
2023-02-05T12:10:46.207Z,90.30
2023-02-05T12:13:26.678Z,90.40
2023-02-05T12:16:07.587Z,90.40
2023-02-05T12:18:40.000Z,90.40
2023-02-05T12:21:42.303Z,90.30
2023-02-05T12:24:42.053Z,90.40
2023-02-05T12:27:49.218Z,90.50
2023-02-05T12:30:21.222Z,90.60
2023-02-05T12:33:19.292Z,90.40
2023-02-05T12:36:06.689Z,90.60
2023-02-05T12:38:57.401Z,90.50
2023-02-05T12:41:51.256Z,90.70
2023-02-05T12:44:46.241Z,90.80
2023-02-05T12:47:43.164Z,90.90
2023-02-05T12:50:16.731Z,90.70
2023-02-05T12:53:09.510Z,90.50
2023-02-05T12:56:10.752Z,90.60
2023-02-05T12:58:51.897Z,90.60
2023-02-05T13:01:25.703Z,90.60
2023-02-05T13:04:01.921Z,90.60
2023-02-05T13:06:43.356Z,90.60
2023-02-05T13:09:24.271Z,90.60
2023-02-05T13:12:01.328Z,91.00
2023-02-05T13:15:02.750Z,90.70
2023-02-05T13:17:35.485Z,91.20
2023-02-05T13:20:07.992Z,90.90
2023-02-05T13:23:00.067Z,90.90
2023-02-05T13:26:05.652Z,91.00
2023-02-05T13:29:01.574Z,91.00
2023-02-05T13:31:39.695Z,91.10
2023-02-05T13:34:10.708Z,91.10
2023-02-05T13:37:12.228Z,91.10
2023-02-05T13:40:09.175Z,91.40
2023-02-05T13:42:41.155Z,91.50
2023-02-05T13:45:22.321Z,91.40
2023-02-05T13:48:12.738Z,91.30
2023-02-05T13:50:53.882Z,91.60
2023-02-05T13:53:43.104Z,91.50
2023-02-05T13:56:23.522Z,91.50
2023-02-05T13:58:58.810Z,91.50
2023-02-05T14:01:37.295Z,91.60
2023-02-05T14:04:21.341Z,91.70
2023-02-05T14:07:21.358Z,91.80
2023-02-05T14:09:57.784Z,92.00
2023-02-05T14:12:30.953Z,91.90
2023-02-05T14:15:18.276Z,91.80
2023-02-05T14:17:47.183Z,92.10
2023-02-05T14:20:28.534Z,91.90
2023-02-05T14:23:05.331Z,92.00
2023-02-05T14:25:43.842Z,92.00
2023-02-05T14:28:22.023Z,92.00
2023-02-05T14:30:59.871Z,92.00
2023-02-05T14:33:37.530Z,92.10
2023-02-05T14:36:18.500Z,92.10
2023-02-05T14:38:58.048Z,92.20
2023-02-05T14:41:45.207Z,92.10
2023-02-05T14:44:14.089Z,92.10
2023-02-05T14:46:58.252Z,92.30
2023-02-05T14:49:48.340Z,92.30
2023-02-05T14:52:34.271Z,92.70
2023-02-05T14:55:15.529Z,92.60
2023-02-05T14:58:05.463Z,92.50
2023-02-05T15:00:45.436Z,92.60
2023-02-05T15:03:16.375Z,92.40
2023-02-05T15:05:49.723Z,92.50
2023-02-05T15:08:29.222Z,92.50
2023-02-05T15:11:16.861Z,92.40
2023-02-05T15:14:34.308Z,92.40
2023-02-05T15:17:10.377Z,92.80
2023-02-05T15:19:43.947Z,92.60
2023-02-05T15:22:42.227Z,92.50
2023-02-05T15:25:37.176Z,92.70
2023-02-05T15:28:44.037Z,92.80
2023-02-05T15:31:27.889Z,93.70
2023-02-05T15:34:35.326Z,93.50
2023-02-05T15:37:22.805Z,93.70
2023-02-05T15:39:54.837Z,93.30
2023-02-05T15:42:45.472Z,93.20
2023-02-05T15:45:37.127Z,93.40
2023-02-05T15:48:20.167Z,93.50
2023-02-05T15:51:01.527Z,93.70
2023-02-05T15:53:38.556Z,93.70
2023-02-05T15:56:21.027Z,93.50
2023-02-05T15:59:02.993Z,93.40
2023-02-05T16:01:33.477Z,93.30
2023-02-05T16:04:03.140Z,93.20
2023-02-05T16:06:32.808Z,93.40
2023-02-05T16:09:01.801Z,93.40
2023-02-05T16:11:36.070Z,93.30
2023-02-05T16:14:17.501Z,93.30
2023-02-05T16:16:57.558Z,93.40
2023-02-05T16:19:41.500Z,93.40
2023-02-05T16:22:31.724Z,93.50
2023-02-05T16:25:04.409Z,93.80
2023-02-05T16:27:42.215Z,93.60
2023-02-05T16:30:32.563Z,93.70
2023-02-05T16:33:05.838Z,93.80
2023-02-05T16:35:40.717Z,93.80
2023-02-05T16:38:19.701Z,94.00
2023-02-05T16:41:01.338Z,93.90
2023-02-05T16:43:38.876Z,93.80
2023-02-05T16:46:10.788Z,93.80
2023-02-05T16:48:46.669Z,93.70
2023-02-05T16:51:33.827Z,93.60
2023-02-05T16:54:12.391Z,93.80
2023-02-05T16:56:46.514Z,93.70
2023-02-05T16:59:27.956Z,93.60
2023-02-05T17:01:57.573Z,93.90
2023-02-05T17:04:40.073Z,93.80
2023-02-05T17:07:20.429Z,93.70
2023-02-05T17:09:50.655Z,93.90
2023-02-05T17:12:26.796Z,93.80
2023-02-05T17:14:59.849Z,93.80
2023-02-05T17:17:31.132Z,93.80
2023-02-05T17:20:08.816Z,93.80
2023-02-05T17:22:38.317Z,93.90
2023-02-05T17:25:07.594Z,93.90
2023-02-05T17:27:39.750Z,94.00
2023-02-05T17:30:15.812Z,93.90
2023-02-05T17:32:45.664Z,93.90
2023-02-05T17:35:19.121Z,94.00
2023-02-05T17:37:48.069Z,94.00
2023-02-05T17:40:17.341Z,94.10
2023-02-05T17:42:46.837Z,94.10
2023-02-05T17:45:28.599Z,94.10
2023-02-05T17:47:57.649Z,94.30
2023-02-05T17:50:26.780Z,94.30
2023-02-05T17:52:56.285Z,94.30
2023-02-05T17:55:25.515Z,94.30
2023-02-05T17:57:54.437Z,94.40
2023-02-05T18:00:29.340Z,94.40
2023-02-05T18:02:58.270Z,94.40
2023-02-05T18:05:29.969Z,94.50
2023-02-05T18:08:00.807Z,94.50
2023-02-05T18:10:33.406Z,94.50
2023-02-05T18:13:02.440Z,94.50
2023-02-05T18:15:34.315Z,94.50
2023-02-05T18:18:03.855Z,94.50
2023-02-05T18:20:33.082Z,94.60
2023-02-05T18:23:04.271Z,94.60
2023-02-05T18:25:33.188Z,94.60
2023-02-05T18:28:02.367Z,94.60
2023-02-05T18:30:32.687Z,94.70
2023-02-05T18:33:01.707Z,94.80
2023-02-05T18:35:30.694Z,94.80
2023-02-05T18:37:59.729Z,94.80
2023-02-05T18:40:28.834Z,94.80
2023-02-05T18:42:57.764Z,94.90
2023-02-05T18:45:26.707Z,94.80
2023-02-05T18:47:55.656Z,94.80
2023-02-05T18:50:25.104Z,94.90
2023-02-05T18:52:54.025Z,94.90
2023-02-05T18:55:23.020Z,95.00
2023-02-05T18:57:55.089Z,95.00
2023-02-05T19:00:24.113Z,95.10
2023-02-05T19:02:53.097Z,95.30
2023-02-05T19:05:21.975Z,95.50
2023-02-05T19:07:50.917Z,95.50
2023-02-05T19:10:20.384Z,95.50
2023-02-05T19:12:50.056Z,95.50
2023-02-05T19:15:19.241Z,95.40
2023-02-05T19:17:48.161Z,95.50
2023-02-05T19:20:17.190Z,95.60
2023-02-05T19:22:46.133Z,95.60
2023-02-05T19:25:15.063Z,95.60
2023-02-05T19:27:43.956Z,95.60
2023-02-05T19:30:15.997Z,95.70
2023-02-05T19:32:44.880Z,95.60
2023-02-05T19:35:13.815Z,95.70
2023-02-05T19:37:42.910Z,96.00
2023-02-05T19:40:13.802Z,96.40
2023-02-05T19:42:43.823Z,96.40
2023-02-05T19:45:12.792Z,95.90
2023-02-05T19:47:41.694Z,96.00
2023-02-05T19:50:11.138Z,96.00
2023-02-05T19:52:42.989Z,95.90
2023-02-05T19:55:11.946Z,95.90
2023-02-05T19:57:41.571Z,96.00
2023-02-05T20:00:11.331Z,95.90
2023-02-05T20:02:40.373Z,96.00
2023-02-05T20:05:09.568Z,96.10
2023-02-05T20:07:40.070Z,96.20
2023-02-05T20:10:09.351Z,96.30
2023-02-05T20:12:38.281Z,96.40
2023-02-05T20:15:07.596Z,96.50
2023-02-05T20:17:36.480Z,96.50
2023-02-05T20:20:15.722Z,96.50
2023-02-05T20:22:51.570Z,96.50
2023-02-05T20:25:20.458Z,96.70
2023-02-05T20:27:49.384Z,96.70
2023-02-05T20:30:36.540Z,96.70
2023-02-05T20:33:05.741Z,96.70
2023-02-05T20:35:37.370Z,96.80
2023-02-05T20:38:06.668Z,97.10
2023-02-05T20:40:35.852Z,96.70
2023-02-05T20:43:05.934Z,96.80
2023-02-05T20:45:34.925Z,97.00
2023-02-05T20:48:03.943Z,97.30
2023-02-05T20:50:32.961Z,97.40
2023-02-05T20:53:02.060Z,97.50
2023-02-05T20:55:31.028Z,97.50
2023-02-05T20:57:59.961Z,97.50
2023-02-05T21:00:29.184Z,97.30
2023-02-05T21:02:58.132Z,97.30
2023-02-05T21:05:27.088Z,97.30
2023-02-05T21:07:56.023Z,97.20
2023-02-05T21:10:24.956Z,97.30
2023-02-05T21:12:53.847Z,97.20
2023-02-05T21:15:22.817Z,97.30
2023-02-05T21:17:51.721Z,97.30
2023-02-05T21:20:20.759Z,97.30
2023-02-05T21:22:49.632Z,97.40
2023-02-05T21:25:19.028Z,97.50
2023-02-05T21:27:47.928Z,97.40
2023-02-05T21:30:16.892Z,97.40
2023-02-05T21:32:45.817Z,97.40
2023-02-05T21:35:14.768Z,97.40
2023-02-05T21:37:43.700Z,97.70
2023-02-05T21:40:13.138Z,97.60
2023-02-05T21:42:42.145Z,97.60
2023-02-05T21:45:11.431Z,97.60
2023-02-05T21:47:40.455Z,97.70
2023-02-05T21:50:09.907Z,97.70
2023-02-05T21:52:39.270Z,97.70
2023-02-05T21:55:08.581Z,97.70
2023-02-05T21:57:37.476Z,97.70
2023-02-05T22:00:06.722Z,97.80
2023-02-05T22:02:35.648Z,97.80
2023-02-05T22:05:05.429Z,98.00
2023-02-05T22:07:34.861Z,98.00
2023-02-05T22:10:03.791Z,98.00
2023-02-05T22:12:32.710Z,98.00
2023-02-05T22:15:01.567Z,98.00
2023-02-05T22:17:30.819Z,98.00
2023-02-05T22:19:59.706Z,98.00
2023-02-05T22:22:28.647Z,98.00
2023-02-05T22:24:58.410Z,98.00
2023-02-05T22:27:28.250Z,98.00
2023-02-05T22:29:57.246Z,97.90
2023-02-05T22:32:26.305Z,98.00
2023-02-05T22:34:55.726Z,98.10
2023-02-05T22:37:25.089Z,98.30
2023-02-05T22:39:54.128Z,98.40
2023-02-05T22:42:23.089Z,98.30
2023-02-05T22:44:52.072Z,98.30
2023-02-05T22:47:21.092Z,98.20
2023-02-05T22:49:50.104Z,98.20
2023-02-05T22:52:19.299Z,98.30
2023-02-05T22:54:48.389Z,98.30
2023-02-05T22:57:17.336Z,98.30
2023-02-05T22:59:46.308Z,98.30
2023-02-05T23:02:15.254Z,98.30
2023-02-05T23:04:44.315Z,98.20
2023-02-05T23:07:13.159Z,98.20
2023-02-05T23:09:42.108Z,98.30
2023-02-05T23:12:11.026Z,98.30
2023-02-05T23:14:40.029Z,98.30
2023-02-05T23:17:08.977Z,98.30
2023-02-05T23:19:37.863Z,98.20
2023-02-05T23:22:10.699Z,98.30
2023-02-05T23:24:39.640Z,98.40
2023-02-05T23:27:08.544Z,98.30
2023-02-05T23:29:38.352Z,98.40
2023-02-05T23:32:08.191Z,98.30
2023-02-05T23:34:37.209Z,98.30
2023-02-05T23:37:06.104Z,98.30
2023-02-05T23:39:35.021Z,98.30
2023-02-05T23:42:04.678Z,98.30
2023-02-05T23:44:34.164Z,98.30
2023-02-05T23:47:03.044Z,98.50
2023-02-05T23:49:31.912Z,98.60
2023-02-05T23:52:00.825Z,98.70
2023-02-05T23:54:29.748Z,98.70
2023-02-05T23:56:58.654Z,98.70
2023-02-05T23:59:27.558Z,98.80
